Aeroporto :
LOGIN :

Iscrizione | Disclaimer

   EN    FR    IT 

 










Sommario :    VFR   VFR Marginale   IFR   IFR Intensivo   IFR Molto Intensivo
Visibilità : 
Base nubi : 
>= 8 km
>= 3000ft
5 / 8 km
1000 / 3000 ft
1500m / 5 km
500 / 1000 ft
800 / 1500m
200 / 500 ft
< 800m
< 200 ft
Simboli :   Temporali  Nebbia  Neve Forte  Precipitazioni Forti  Vento > 20 kt
SIGMETs :   Varie  Temporali  Ghiacco  Turbolenza  Onda orograficha  Ceneri Vulcaniche







- Altitudine del aeroporto : 659 ft
- Codice IATA : LGG


EBLG - Liège

ULTIMO METAR :
  • 222120Z 10005KT 050V120 CAVOK 06/01 Q1013 NOSIG

METARs OBSOLETI :
  • 222050Z VRB04KT CAVOK 07/01 Q1013 NOSIG
  • 222020Z 11005KT CAVOK 07/01 Q1013 NOSIG
  • 221950Z 12005KT CAVOK 07/01 Q1013 NOSIG
  • 221920Z 14006KT CAVOK 08/01 Q1013 NOSIG
  • 221850Z 15006KT 120V180 CAVOK 08/01 Q1013 NOSIG

TAF TAF EBLG
Valido dal 22 a 18 ore il 24 a 00 ore UTC


221710Z 2218/2324 15010KT 9999 FEW045
BECMG 2300/2302 06007KT
PROB30
TEMPO 2303/2308 4500 BR
Nessun NOTAM noto per questo aeroporto.



MetMap, La meteo Aeronautica in un colpo d'occhio ! - Copyright ORBIFLY Dicembre 2007 - Disclaimer

ORBIFLY MET'MAP TEAM :

Programmazione e sviluppo : Alexandra Zaïnal
Concezione e sviluppo : Baudouin d'Aumeries
Co-Programmazione e sviluppo : Marc-Olivier Méhu
Supporto tecnico e logistico : Manuel Goepfert
Aiuto per la traduzione : Arnaldo La Scala

Contatto : metmap@orbifly.com




FONTI E CREDITI :

   NOAA